Time;durP1;ratioP1;P1;durP2;ratioP2;P2;SDS_P1;SDS_P2;PMS_P1;PMS_P2;Temp;Humidity;BMP_temperature;BMP_pressure;BME280_temperature;BME280_humidity;BME280_pressure;Samples;Min_cycle;Max_cycle;Signal;HPM_P1;HPM_P2
2023/02/28 00:00:59;;;;;;;;;20.25;20.25;;;;;5.85;46.09;102103.09;2079758;28;45475;-67
2023/02/28 00:01:59;;;;;;;;;20.25;19.50;;;;;5.85;45.81;102106.63;2079665;28;45589;-66
2023/02/28 00:03:00;;;;;;;;;20.00;18.75;;;;;5.83;46.58;102108.31;2079648;28;46713;-67
2023/02/28 00:04:00;;;;;;;;;22.25;20.75;;;;;5.82;46.14;102109.19;2076282;28;46604;-66
2023/02/28 00:05:03;;;;;;;;;20.25;20.00;;;;;5.81;46.33;102110.03;2072256;28;46849;-66
2023/02/28 00:06:05;;;;;;;;;23.20;22.60;;;;;5.80;46.59;102117.91;2078960;28;46971;-67
2023/02/28 00:07:06;;;;;;;;;19.40;19.40;;;;;5.78;46.07;102107.34;2081244;28;46160;-68
2023/02/28 00:08:06;;;;;;;;;21.00;21.00;;;;;5.78;46.03;102117.88;2088058;28;45565;-66
2023/02/28 00:09:07;;;;;;;;;22.00;22.00;;;;;5.77;46.19;102109.97;2080882;28;45585;-67
2023/02/28 00:10:10;;;;;;;;;21.75;20.50;;;;;5.75;45.93;102117.84;2079784;28;46702;-66
2023/02/28 00:11:14;;;;;;;;;24.20;24.20;;;;;5.74;46.36;102112.53;2079418;28;47117;-65
2023/02/28 00:12:14;;;;;;;;;25.20;22.80;;;;;5.73;46.66;102111.66;2079738;28;46729;-66
2023/02/28 00:13:14;;;;;;;;;23.25;21.50;;;;;5.71;46.36;102108.06;2080065;28;46925;-66
2023/02/28 00:14:15;;;;;;;;;18.75;18.75;;;;;5.71;46.20;102109.81;2079340;28;45697;-65
2023/02/28 00:15:16;;;;;;;;;21.50;20.75;;;;;5.70;46.52;102108.94;2078675;28;45711;-66
2023/02/28 00:16:19;;;;;;;;;21.60;20.80;;;;;5.69;46.84;102108.91;2087695;28;45598;-65
2023/02/28 00:17:21;;;;;;;;;21.00;21.00;;;;;5.69;46.50;102108.91;2094761;28;46711;-65
2023/02/28 00:18:22;;;;;;;;;24.60;22.60;;;;;5.67;46.33;102108.88;2079927;28;46148;-67
2023/02/28 00:19:22;;;;;;;;;23.50;20.50;;;;;5.67;46.59;102108.00;2079924;28;45906;-67
2023/02/28 00:20:22;;;;;;;;;22.25;21.50;;;;;5.67;46.59;102108.00;2079722;28;46346;-67
2023/02/28 00:21:24;;;;;;;;;22.75;21.25;;;;;5.66;46.37;102108.84;2079137;28;46073;-66
2023/02/28 00:22:24;;;;;;;;;25.20;21.20;;;;;5.66;46.42;102109.72;2079829;28;46455;-65
2023/02/28 00:23:25;;;;;;;;;24.75;23.25;;;;;5.67;46.51;102113.25;2075852;28;46461;-64
2023/02/28 00:24:26;;;;;;;;;22.00;21.60;;;;;5.66;46.21;102116.75;2072379;28;46033;-67
2023/02/28 00:25:26;;;;;;;;;20.00;20.00;;;;;5.66;46.60;102122.00;2078829;28;45733;-66
2023/02/28 00:26:26;;;;;;;;;24.50;24.00;;;;;5.65;46.47;102121.13;2075523;28;45509;-66
2023/02/28 00:27:27;;;;;;;;;24.75;21.50;;;;;5.65;47.01;102114.97;2075597;28;46122;-67
2023/02/28 00:28:27;;;;;;;;;23.25;20.25;;;;;5.64;46.90;102115.84;2079813;28;45937;-66
2023/02/28 00:29:27;;;;;;;;;20.00;18.50;;;;;5.64;46.39;102114.09;2079790;28;45800;-66
2023/02/28 00:30:28;;;;;;;;;20.75;20.75;;;;;5.65;46.40;102121.13;2079038;28;46590;-67
2023/02/28 00:31:28;;;;;;;;;20.50;19.25;;;;;5.65;46.42;102118.50;2079965;28;45754;-66
2023/02/28 00:32:29;;;;;;;;;23.25;23.25;;;;;5.65;46.43;102112.34;2079571;28;46697;-66
2023/02/28 00:33:29;;;;;;;;;21.20;20.60;;;;;5.66;46.52;102122.00;2079715;28;45662;-65
2023/02/28 00:34:30;;;;;;;;;22.75;20.25;;;;;5.66;46.71;102119.38;2078946;28;46038;-66
2023/02/28 00:35:30;;;;;;;;;22.25;21.50;;;;;5.65;46.68;102121.13;2079568;28;45940;-66
2023/02/28 00:36:30;;;;;;;;;14.25;14.25;;;;;5.64;47.00;102119.34;2079329;28;46689;-65
2023/02/28 00:37:31;;;;;;;;;23.00;21.25;;;;;5.64;46.72;102119.34;2095645;28;46637;-67
2023/02/28 00:38:31;;;;;;;;;16.25;16.25;;;;;5.64;46.63;102119.34;2091110;28;46589;-66
2023/02/28 00:39:34;;;;;;;;;24.00;23.00;;;;;5.65;47.01;102120.25;2079417;28;46883;-65
2023/02/28 00:40:34;;;;;;;;;23.00;21.40;;;;;5.64;46.51;102121.09;2079234;28;46289;-66
2023/02/28 00:41:34;;;;;;;;;19.00;18.25;;;;;5.63;46.91;102125.47;2079702;28;45390;-66
2023/02/28 00:42:35;;;;;;;;;20.00;20.00;;;;;5.63;46.38;102121.97;2079639;28;46880;-67
2023/02/28 00:43:38;;;;;;;;;21.60;20.00;;;;;5.64;46.86;102124.63;2075628;28;46571;-66
2023/02/28 00:44:38;;;;;;;;;17.20;17.20;;;;;5.63;46.88;102120.22;2079554;28;46253;-66
2023/02/28 00:45:39;;;;;;;;;21.50;21.50;;;;;5.64;46.31;102126.38;2083755;28;46995;-65
2023/02/28 00:46:39;;;;;;;;;18.50;18.50;;;;;5.63;46.92;102122.84;2079838;28;45959;-66
2023/02/28 00:47:40;;;;;;;;;24.00;21.75;;;;;5.63;46.36;102130.75;2079595;28;45583;-66
2023/02/28 00:48:40;;;;;;;;;18.00;18.00;;;;;5.61;46.56;102128.09;2079598;28;45976;-66
2023/02/28 00:49:40;;;;;;;;;19.25;18.75;;;;;5.61;47.21;102125.44;2078895;28;45949;-67
2023/02/28 00:50:40;;;;;;;;;23.75;20.00;;;;;5.61;46.88;102129.84;2075831;28;46006;-67
2023/02/28 00:51:41;;;;;;;;;21.00;21.00;;;;;5.60;46.63;102123.69;2079668;28;44973;-67
2023/02/28 00:52:41;;;;;;;;;21.50;19.50;;;;;5.61;46.33;102127.19;2079546;28;45805;-66
2023/02/28 00:53:41;;;;;;;;;15.00;14.50;;;;;5.60;47.09;102133.31;2078747;28;46190;-66
2023/02/28 00:54:42;;;;;;;;;21.00;19.00;;;;;5.59;46.47;102126.28;2077755;28;45102;-66
2023/02/28 00:55:42;;;;;;;;;21.50;21.00;;;;;5.58;47.01;102133.25;2087203;28;45961;-66
2023/02/28 00:56:42;;;;;;;;;20.50;20.50;;;;;5.58;46.75;102132.38;2095858;28;45741;-66
2023/02/28 00:57:43;;;;;;;;;18.25;18.25;;;;;5.56;46.82;102128.81;2074089;28;46815;-65
2023/02/28 00:58:43;;;;;;;;;20.50;20.50;;;;;5.56;46.61;102140.25;2078455;28;45573;-66
2023/02/28 00:59:44;;;;;;;;;20.00;20.00;;;;;5.55;46.90;102133.19;2075777;28;46523;-66
2023/02/28 01:00:48;;;;;;;;;21.75;21.75;;;;;5.55;46.99;102132.31;2085880;28;46644;-65
2023/02/28 01:01:48;;;;;;;;;23.20;22.60;;;;;5.54;46.71;102134.06;2086485;28;46493;-66
2023/02/28 01:02:49;;;;;;;;;13.75;13.75;;;;;5.52;46.76;102133.16;2078957;28;46500;-65
2023/02/28 01:03:49;;;;;;;;;20.25;20.00;;;;;5.50;46.65;102134.88;2084054;28;46128;-66
2023/02/28 01:04:49;;;;;;;;;20.75;20.75;;;;;5.47;46.68;102133.91;2083139;28;47047;-66
2023/02/28 01:05:50;;;;;;;;;24.00;22.00;;;;;5.45;47.09;102135.59;2079039;28;46259;-65
2023/02/28 01:06:51;;;;;;;;;20.50;18.50;;;;;5.45;46.73;102138.22;2080165;28;46264;-67
2023/02/28 01:07:51;;;;;;;;;21.50;19.25;;;;;5.45;46.67;102138.22;2075297;28;46247;-65
2023/02/28 01:08:52;;;;;;;;;20.75;18.00;;;;;5.44;46.89;102136.44;2075788;28;45918;-65
2023/02/28 01:09:52;;;;;;;;;20.20;20.00;;;;;5.44;47.15;102137.34;2079062;28;46158;-65
2023/02/28 01:10:53;;;;;;;;;20.75;20.50;;;;;5.44;47.15;102141.72;2080536;28;45597;-66
2023/02/28 01:11:53;;;;;;;;;17.25;16.75;;;;;5.43;46.76;102142.56;2079876;28;46446;-66
2023/02/28 01:12:54;;;;;;;;;21.25;19.25;;;;;5.44;47.15;102144.34;2081146;28;45627;-65
2023/02/28 01:13:54;;;;;;;;;14.50;14.50;;;;;5.42;46.42;102139.06;2081149;28;46447;-65
2023/02/28 01:14:55;;;;;;;;;18.25;18.00;;;;;5.41;46.85;102139.91;2096681;28;46529;-67
2023/02/28 01:15:56;;;;;;;;;18.25;16.75;;;;;5.41;46.78;102142.56;2096727;28;46469;-65
2023/02/28 01:16:57;;;;;;;;;20.60;20.20;;;;;5.39;46.87;102144.25;2080677;28;46189;-66
2023/02/28 01:17:58;;;;;;;;;19.50;18.50;;;;;5.40;47.15;102137.25;2080998;28;45576;-66
2023/02/28 01:18:58;;;;;;;;;19.00;18.80;;;;;5.39;46.87;102139.00;2087442;28;46945;-66
2023/02/28 01:19:59;;;;;;;;;20.75;20.50;;;;;5.38;47.16;102142.50;2080386;28;46400;-65
2023/02/28 01:21:07;;;;;;;;;24.00;21.25;;;;;5.39;46.78;102146.91;2081024;28;45468;-66
2023/02/28 01:22:07;;;;;;;;;17.00;17.00;;;;;5.37;46.61;102143.34;2080080;28;46393;-65
2023/02/28 01:23:07;;;;;;;;;18.25;18.25;;;;;5.36;47.19;102138.94;2080687;28;46440;-65
2023/02/28 01:24:08;;;;;;;;;18.00;18.00;;;;;5.37;46.78;102145.09;2080615;28;46600;-66
2023/02/28 01:25:08;;;;;;;;;18.50;16.75;;;;;5.37;47.13;102142.47;2080450;28;46669;-66
2023/02/28 01:26:12;;;;;;;;;19.50;19.50;;;;;5.37;47.45;102139.81;2079709;28;46437;-66
2023/02/28 01:27:13;;;;;;;;;20.40;19.80;;;;;5.36;47.34;102152.09;2074910;28;47070;-67
2023/02/28 01:28:13;;;;;;;;;21.25;18.25;;;;;5.35;46.81;102145.06;2076047;28;46120;-66
2023/02/28 01:29:15;;;;;;;;;19.50;18.50;;;;;5.35;47.19;102146.81;2073294;28;46173;-65
2023/02/28 01:30:15;;;;;;;;;18.80;18.80;;;;;5.36;47.33;102152.09;2074176;28;45629;-66
2023/02/28 01:31:17;;;;;;;;;19.00;19.00;;;;;5.35;47.14;102147.69;2095456;28;46844;-65
2023/02/28 01:32:18;;;;;;;;;17.60;17.60;;;;;5.35;46.90;102152.06;2094493;28;46310;-66
2023/02/28 01:33:18;;;;;;;;;20.00;18.75;;;;;5.34;47.36;102145.91;2080837;28;46476;-66
2023/02/28 01:34:19;;;;;;;;;17.75;17.75;;;;;5.34;46.95;102147.66;2079878;28;46422;-66
2023/02/28 01:35:19;;;;;;;;;19.50;17.50;;;;;5.33;47.11;102149.38;2088568;28;46632;-66
2023/02/28 01:36:22;;;;;;;;;19.00;17.25;;;;;5.33;46.81;102146.75;2096694;28;46630;-66
2023/02/28 01:37:23;;;;;;;;;23.20;19.40;;;;;5.32;47.12;102148.50;2080534;28;45861;-66
2023/02/28 01:38:23;;;;;;;;;16.25;16.25;;;;;5.31;46.88;102144.06;2080655;28;46564;-65
2023/02/28 01:39:24;;;;;;;;;18.25;17.75;;;;;5.32;47.12;102143.22;2080330;28;46367;-65
2023/02/28 01:40:25;;;;;;;;;20.80;19.20;;;;;5.32;46.73;102137.97;2076005;28;45323;-66
2023/02/28 01:41:29;;;;;;;;;18.50;17.50;;;;;5.32;47.28;102143.22;2072406;28;45607;-65
2023/02/28 01:42:29;;;;;;;;;19.60;19.60;;;;;5.33;46.68;102138.84;2075399;28;47277;-65
2023/02/28 01:43:52;;;;;;;;;20.00;19.00;;;;;5.32;46.73;102132.69;2073337;28;46303;-65
2023/02/28 01:45:21;;;;;;;;;19.80;18.00;;;;;5.32;46.84;102132.69;2077167;28;46424;-66
2023/02/28 01:46:21;;;;;;;;;21.60;19.00;;;;;5.32;46.89;102137.06;2091733;28;45946;-65
2023/02/28 01:47:24;;;;;;;;;14.25;14.25;;;;;5.31;47.05;102132.66;2096122;28;45448;-66
2023/02/28 01:48:34;;;;;;;;;18.00;15.80;;;;;5.31;47.11;102128.28;2079797;28;46302;-66
2023/02/28 01:49:34;;;;;;;;;24.40;21.20;;;;;5.31;46.71;102128.28;2079811;28;46573;-64
2023/02/28 01:50:39;;;;;;;;;23.75;20.75;;;;;5.31;47.24;102128.28;2072363;28;46817;-65
2023/02/28 01:51:50;;;;;;;;;18.60;18.60;;;;;5.31;47.09;102136.19;2080279;28;45694;-64
2023/02/28 01:52:54;;;;;;;;;19.60;18.80;;;;;5.30;46.91;102137.03;2080397;28;46483;-65
2023/02/28 01:54:01;;;;;;;;;19.40;19.00;;;;;5.30;47.05;102136.16;2080534;28;46529;-66
2023/02/28 01:55:04;;;;;;;;;18.20;18.20;;;;;5.30;46.65;102130.88;2080991;28;45724;-65
2023/02/28 01:56:08;;;;;;;;;18.80;16.80;;;;;5.30;47.00;102136.16;2080088;28;46531;-64
2023/02/28 01:57:16;;;;;;;;;19.00;18.40;;;;;5.29;46.50;102134.38;2080610;28;46458;-65
2023/02/28 01:58:17;;;;;;;;;15.80;15.80;;;;;5.29;46.85;102139.63;2079983;28;46430;-65
2023/02/28 01:59:25;;;;;;;;;19.20;18.60;;;;;5.29;47.30;102134.38;2080585;28;45843;-64
2023/02/28 02:00:28;;;;;;;;;18.40;17.40;;;;;5.28;47.17;102138.75;2080985;28;45770;-64
2023/02/28 02:01:30;;;;;;;;;21.20;19.40;;;;;5.28;46.88;102132.59;2079740;28;46967;-67
2023/02/28 02:02:31;;;;;;;;;19.40;19.40;;;;;5.28;46.98;102132.59;2080567;28;46301;-65
2023/02/28 02:03:31;;;;;;;;;18.75;18.75;;;;;5.28;47.33;102127.34;2080307;28;46512;-65
2023/02/28 02:04:39;;;;;;;;;21.00;21.00;;;;;5.28;47.11;102132.59;2079562;28;46743;-65
2023/02/28 02:05:41;;;;;;;;;20.20;16.40;;;;;5.28;47.25;102122.97;2075057;28;46690;-65
2023/02/28 02:06:45;;;;;;;;;16.60;15.40;;;;;5.28;47.08;102128.22;2080027;28;46820;-65
2023/02/28 02:07:49;;;;;;;;;20.80;20.80;;;;;5.28;46.69;102122.97;2087603;28;46833;-65
2023/02/28 02:08:50;;;;;;;;;22.00;21.20;;;;;5.28;46.79;102122.06;2086975;28;46334;-65
2023/02/28 02:10:00;;;;;;;;;18.00;17.25;;;;;5.26;47.32;102134.31;2080527;28;48736;-64
2023/02/28 02:11:02;;;;;;;;;21.00;21.00;;;;;5.25;47.26;102116.75;2080356;28;45785;-64
2023/02/28 02:12:21;;;;;;;;;19.80;18.00;;;;;5.24;47.30;102126.38;2079889;28;46821;-65
2023/02/28 02:13:40;;;;;;;;;12.20;12.00;;;;;5.22;46.87;102128.09;2080338;28;46685;-65
2023/02/28 02:15:06;;;;;;;;;18.80;18.80;;;;;5.22;47.07;102125.47;2080631;28;46138;-65
2023/02/28 02:16:24;;;;;;;;;16.60;16.60;;;;;5.20;47.15;102123.63;2080186;28;45642;-64
2023/02/28 02:17:39;;;;;;;;;22.20;20.60;;;;;5.19;47.10;102122.75;2080571;28;46427;-65
2023/02/28 02:18:50;;;;;;;;;20.20;18.60;;;;;5.20;47.50;102123.63;2080133;28;46928;-64
2023/02/28 02:20:06;;;;;;;;;18.80;16.20;;;;;5.20;47.34;102126.25;2080402;28;46161;-66
2023/02/28 02:21:33;;;;;;;;;13.80;11.80;;;;;5.18;47.36;102120.09;2079994;28;46177;-66
2023/02/28 02:22:52;;;;;;;;;17.20;17.20;;;;;5.17;47.04;102115.69;2079513;28;47241;-66
2023/02/28 02:24:16;;;;;;;;;19.60;17.80;;;;;5.15;47.44;102120.03;2077482;28;46761;-66
2023/02/28 02:25:32;;;;;;;;;19.20;17.40;;;;;5.14;46.93;102115.63;2084516;28;46303;-65
2023/02/28 02:26:41;;;;;;;;;16.80;14.40;;;;;5.13;47.47;102117.34;2082585;28;46321;-66
2023/02/28 02:27:44;;;;;;;;;20.60;20.40;;;;;5.11;47.43;102121.69;2079866;28;46315;-65
2023/02/28 02:28:57;;;;;;;;;18.20;17.60;;;;;5.10;47.34;102119.03;2086481;28;45823;-65
2023/02/28 02:30:20;;;;;;;;;18.60;17.80;;;;;5.12;47.00;102115.59;2087155;28;46780;-65
2023/02/28 02:31:51;;;;;;;;;22.80;19.20;;;;;5.12;47.37;102119.97;2081844;28;46410;-65
2023/02/28 02:33:16;;;;;;;;;19.80;18.00;;;;;5.11;46.90;102118.19;2071756;28;45827;-66
2023/02/28 02:34:58;;;;;;;;;14.60;14.20;;;;;5.10;47.04;102114.66;2072975;28;46457;-65
2023/02/28 02:36:07;;;;;;;;;17.00;15.80;;;;;5.09;47.25;102110.25;2061440;28;45894;-65
2023/02/28 02:37:28;;;;;;;;;17.60;16.00;;;;;5.08;46.78;102107.56;2058700;28;46143;-65
2023/02/28 02:38:50;;;;;;;;;16.20;16.20;;;;;5.06;46.85;102110.16;2053798;28;46749;-65
2023/02/28 02:40:09;;;;;;;;;17.40;17.40;;;;;5.05;47.20;102105.75;2063062;28;46890;-66
2023/02/28 02:41:22;;;;;;;;;17.00;17.00;;;;;5.06;47.32;102106.63;2066264;28;46737;-66
2023/02/28 02:42:39;;;;;;;;;22.80;22.80;;;;;5.06;47.05;102112.78;2063486;28;46929;-65
2023/02/28 02:43:47;;;;;;;;;20.80;20.20;;;;;5.04;47.23;102101.34;2062409;28;47060;-65
2023/02/28 02:45:00;;;;;;;;;19.60;17.20;;;;;5.03;46.88;102105.72;2063360;28;46000;-65
2023/02/28 02:46:15;;;;;;;;;17.80;17.80;;;;;5.04;47.24;102106.63;2063071;28;46321;-65
2023/02/28 02:47:19;;;;;;;;;15.80;14.40;;;;;5.04;46.79;102114.50;2065095;28;45915;-65
2023/02/28 02:48:24;;;;;;;;;14.00;13.80;;;;;5.03;46.64;102104.84;2059534;28;45382;-65
2023/02/28 02:49:30;;;;;;;;;13.40;13.20;;;;;5.01;47.08;102110.06;2054005;28;46743;-64
2023/02/28 02:50:36;;;;;;;;;20.00;17.60;;;;;5.02;46.85;102108.31;2058115;28;45645;-65
2023/02/28 02:51:39;;;;;;;;;17.40;16.20;;;;;5.03;46.56;102107.47;2058688;28;45995;-65
2023/02/28 02:52:48;;;;;;;;;18.00;18.00;;;;;5.02;46.92;102108.31;2062244;28;46678;-65
2023/02/28 02:53:59;;;;;;;;;17.20;15.60;;;;;5.02;46.91;102113.59;2064232;28;46321;-65
2023/02/28 02:55:02;;;;;;;;;16.60;15.80;;;;;5.02;46.97;102113.59;2066198;28;45591;-64
2023/02/28 02:56:05;;;;;;;;;12.20;12.20;;;;;5.02;47.07;102119.72;2062552;28;46759;-65
2023/02/28 02:57:14;;;;;;;;;18.00;16.80;;;;;5.02;46.90;102114.47;2066845;28;46804;-66
2023/02/28 02:58:18;;;;;;;;;15.80;15.80;;;;;5.02;46.91;102110.97;2065851;28;45355;-65
2023/02/28 02:59:23;;;;;;;;;16.20;16.20;;;;;5.02;46.91;102116.22;2069393;28;46165;-65
2023/02/28 03:00:30;;;;;;;;;17.40;17.40;;;;;5.00;46.89;102110.03;2054174;28;47974;-65
2023/02/28 03:01:32;;;;;;;;;16.60;16.60;;;;;5.00;46.61;102115.28;2051825;28;46414;-65
2023/02/28 03:02:33;;;;;;;;;20.20;19.60;;;;;4.99;46.80;102109.16;2062742;28;46715;-65
2023/02/28 03:03:35;;;;;;;;;18.00;17.40;;;;;4.99;46.53;102111.78;2065797;28;45575;-66
2023/02/28 03:04:43;;;;;;;;;16.40;15.00;;;;;4.99;46.42;102111.78;2067317;28;46490;-65
2023/02/28 03:05:48;;;;;;;;;18.60;17.60;;;;;4.98;46.93;102110.00;2063008;28;46980;-66
2023/02/28 03:06:54;;;;;;;;;14.20;14.20;;;;;4.98;46.29;102101.22;2066789;28;46786;-67
2023/02/28 03:07:54;;;;;;;;;17.40;17.00;;;;;4.96;46.84;102101.19;2066681;28;46643;-66
2023/02/28 03:08:55;;;;;;;;;17.25;17.25;;;;;4.97;46.25;102099.44;2070984;28;46518;-66
2023/02/28 03:09:57;;;;;;;;;15.25;14.00;;;;;4.97;46.67;102105.59;2068575;28;45989;-65
2023/02/28 03:11:01;;;;;;;;;13.40;13.40;;;;;4.97;46.79;102105.59;2075403;28;46711;-66
2023/02/28 03:12:03;;;;;;;;;16.80;14.40;;;;;4.98;46.64;102103.84;2078818;28;45997;-66
2023/02/28 03:13:09;;;;;;;;;16.80;16.60;;;;;4.97;46.35;102108.22;2074417;28;46858;-66
2023/02/28 03:14:31;;;;;;;;;13.80;13.80;;;;;4.97;46.84;102110.84;2085287;28;45828;-66
2023/02/28 03:15:48;;;;;;;;;16.00;13.40;;;;;4.96;46.31;102113.47;2087343;28;46285;-65
2023/02/28 03:16:56;;;;;;;;;15.60;15.00;;;;;4.95;46.81;102111.66;2079107;28;45939;-66
2023/02/28 03:18:14;;;;;;;;;18.00;14.60;;;;;4.96;46.34;102114.34;2082830;28;47919;-66
2023/02/28 03:19:20;;;;;;;;;17.20;14.80;;;;;4.96;46.66;102106.44;2085448;28;45825;-66
2023/02/28 03:20:24;;;;;;;;;19.80;17.80;;;;;4.95;46.76;102117.78;2084634;28;46311;-65
2023/02/28 03:21:29;;;;;;;;;16.20;16.20;;;;;4.94;46.90;102113.41;2079759;28;46483;-66
2023/02/28 03:22:50;;;;;;;;;12.60;12.60;;;;;4.94;46.30;102113.41;2080142;28;46026;-66
2023/02/28 03:23:57;;;;;;;;;16.20;15.60;;;;;4.94;46.25;102113.41;2085813;28;46495;-66
2023/02/28 03:25:07;;;;;;;;;15.00;15.00;;;;;4.95;46.65;102109.91;2083087;28;46076;-65
2023/02/28 03:26:18;;;;;;;;;16.40;13.40;;;;;4.96;46.71;102114.34;2079815;28;46438;-65
2023/02/28 03:27:29;;;;;;;;;16.80;14.00;;;;;4.94;46.46;102115.13;2090010;28;46498;-67
2023/02/28 03:28:40;;;;;;;;;12.40;12.00;;;;;4.92;46.34;102112.47;2085633;28;45800;-66
2023/02/28 03:30:10;;;;;;;;;17.00;15.80;;;;;4.94;46.10;102113.41;2096646;28;46454;-65
2023/02/28 03:31:30;;;;;;;;;17.00;16.00;;;;;4.92;46.46;102116.84;2087408;28;46251;-64
2023/02/28 03:32:38;;;;;;;;;11.40;11.40;;;;;4.91;46.34;102110.69;2081307;28;46437;-65
2023/02/28 03:33:46;;;;;;;;;14.00;12.20;;;;;4.91;46.58;102117.69;2079528;28;46364;-65
2023/02/28 03:34:58;;;;;;;;;17.00;15.40;;;;;4.91;46.06;102115.97;2086053;28;45657;-66
2023/02/28 03:36:14;;;;;;;;;14.60;14.60;;;;;4.91;46.19;102115.97;2082361;28;46536;-65
2023/02/28 03:37:21;;;;;;;;;18.40;16.80;;;;;4.92;46.02;102120.38;2081762;28;46284;-65
2023/02/28 03:38:44;;;;;;;;;15.80;15.80;;;;;4.91;46.56;102108.06;2085799;28;46873;-65
2023/02/28 03:39:56;;;;;;;;;13.40;11.60;;;;;4.90;46.32;102116.81;2093748;28;46472;-65
2023/02/28 03:41:19;;;;;;;;;18.80;16.60;;;;;4.88;46.51;102115.91;2083829;28;46419;-65
2023/02/28 03:42:24;;;;;;;;;14.20;12.60;;;;;4.88;46.39;102113.25;2080272;28;45890;-65
2023/02/28 03:43:32;;;;;;;;;17.00;16.00;;;;;4.87;46.18;102113.22;2078041;28;46634;-66
2023/02/28 03:44:40;;;;;;;;;15.80;15.80;;;;;4.86;46.51;102117.59;2090590;28;46207;-65
2023/02/28 03:45:43;;;;;;;;;13.00;13.00;;;;;4.86;46.42;102114.09;2087680;28;46536;-66
2023/02/28 03:46:54;;;;;;;;;15.00;14.80;;;;;4.85;46.03;102118.47;2085273;28;46174;-66
2023/02/28 03:48:03;;;;;;;;;14.20;13.40;;;;;4.84;46.17;102114.06;2087038;28;46078;-65
2023/02/28 03:49:13;;;;;;;;;16.20;16.20;;;;;4.85;46.05;102112.31;2078255;28;45588;-65
2023/02/28 03:50:32;;;;;;;;;15.80;15.80;;;;;4.85;46.49;102117.56;2093319;28;47043;-65
2023/02/28 03:51:35;;;;;;;;;14.40;11.80;;;;;4.84;46.33;102114.06;2089916;28;46175;-66
2023/02/28 03:52:41;;;;;;;;;13.80;12.80;;;;;4.85;46.25;102112.31;2083111;28;45775;-65
2023/02/28 03:53:49;;;;;;;;;12.40;12.40;;;;;4.84;46.00;102110.53;2079796;28;45144;-65
2023/02/28 03:55:00;;;;;;;;;13.40;13.40;;;;;4.84;46.38;102111.41;2080574;28;45653;-65
2023/02/28 03:56:11;;;;;;;;;11.80;10.80;;;;;4.86;45.99;102114.09;2082456;28;45758;-64
2023/02/28 03:57:17;;;;;;;;;14.40;14.40;;;;;4.85;46.29;102114.94;2081963;28;46718;-65
2023/02/28 03:58:34;;;;;;;;;12.80;12.80;;;;;4.86;46.19;102114.09;2079893;28;45744;-64
2023/02/28 03:59:41;;;;;;;;;13.00;13.00;;;;;4.83;45.81;102114.91;2080134;28;46719;-65
2023/02/28 04:00:51;;;;;;;;;12.40;12.40;;;;;4.83;45.90;102114.00;2085249;28;46976;-65
2023/02/28 04:01:52;;;;;;;;;14.80;14.20;;;;;4.81;46.59;102108.69;2079534;28;46342;-66
2023/02/28 04:02:53;;;;;;;;;12.00;12.00;;;;;4.80;45.96;102114.81;2079448;28;46519;-66
2023/02/28 04:03:54;;;;;;;;;15.80;13.80;;;;;4.81;46.40;102115.69;2079512;28;46379;-66
2023/02/28 04:04:54;;;;;;;;;13.75;13.75;;;;;4.80;45.86;102117.44;2079831;28;45795;-65
2023/02/28 04:05:56;;;;;;;;;18.00;17.75;;;;;4.79;46.09;102126.19;2082395;28;46817;-66
2023/02/28 04:07:08;;;;;;;;;13.60;13.60;;;;;4.79;45.92;102123.56;2089767;28;45981;-66
2023/02/28 04:08:08;;;;;;;;;10.80;10.80;;;;;4.79;46.34;102120.91;2086146;28;46155;-66
2023/02/28 04:09:11;;;;;;;;;14.50;14.50;;;;;4.78;46.10;102119.16;2082100;28;46802;-66
2023/02/28 04:10:13;;;;;;;;;12.20;12.20;;;;;4.79;46.18;102120.91;2082159;28;46429;-66
2023/02/28 04:11:22;;;;;;;;;11.60;11.60;;;;;4.79;46.26;102118.28;2080049;28;45688;-66
2023/02/28 04:12:23;;;;;;;;;15.80;13.40;;;;;4.79;45.76;102128.81;2082128;28;46900;-66
2023/02/28 04:13:23;;;;;;;;;17.60;17.20;;;;;4.79;46.09;102134.06;2087320;28;46464;-66
2023/02/28 04:14:24;;;;;;;;;16.50;16.00;;;;;4.77;45.96;102129.63;2090917;28;46895;-67
2023/02/28 04:15:24;;;;;;;;;12.00;12.00;;;;;4.77;45.90;102125.25;2080393;28;45724;-65
2023/02/28 04:16:24;;;;;;;;;13.75;13.00;;;;;4.77;46.31;102119.13;2081098;28;46324;-67
2023/02/28 04:17:25;;;;;;;;;17.50;16.75;;;;;4.76;46.04;102123.47;2080677;28;46610;-65
2023/02/28 04:18:25;;;;;;;;;15.50;14.50;;;;;4.77;45.82;102129.63;2083059;28;46208;-65
2023/02/28 04:19:26;;;;;;;;;16.75;14.50;;;;;4.75;45.79;102124.34;2079448;28;46807;-65
2023/02/28 04:20:26;;;;;;;;;16.25;16.25;;;;;4.73;46.25;102126.06;2078745;28;46879;-67
2023/02/28 04:21:26;;;;;;;;;14.50;14.50;;;;;4.73;45.81;102124.31;2076594;28;45804;-66
2023/02/28 04:22:26;;;;;;;;;13.75;13.75;;;;;4.72;46.40;102121.66;2079788;28;46479;-65
2023/02/28 04:23:27;;;;;;;;;16.75;16.75;;;;;4.73;46.34;102133.94;2079396;28;45901;-65
2023/02/28 04:24:27;;;;;;;;;19.50;17.00;;;;;4.72;46.18;102132.16;2091544;28;47712;-67
2023/02/28 04:25:28;;;;;;;;;16.75;16.75;;;;;4.71;46.13;102127.75;2085590;28;46598;-65
2023/02/28 04:26:34;;;;;;;;;17.75;17.75;;;;;4.71;45.86;102131.28;2076475;28;45864;-66
2023/02/28 04:27:34;;;;;;;;;17.60;16.80;;;;;4.70;46.27;102139.09;2100017;28;46331;-65
2023/02/28 04:28:37;;;;;;;;;14.00;14.00;;;;;4.70;46.06;102136.47;2093697;28;46959;-66
2023/02/28 04:29:37;;;;;;;;;17.80;17.00;;;;;4.69;46.24;102134.69;2079834;28;45610;-66
2023/02/28 04:30:39;;;;;;;;;13.00;13.00;;;;;4.69;46.21;102134.69;2080586;28;45942;-66
2023/02/28 04:31:39;;;;;;;;;14.60;13.80;;;;;4.69;45.94;102137.31;2079732;28;46704;-65
2023/02/28 04:32:40;;;;;;;;;15.00;15.00;;;;;4.68;46.33;102132.91;2083176;28;45916;-65
2023/02/28 04:33:40;;;;;;;;;19.75;18.25;;;;;4.67;46.23;102137.28;2079535;28;45847;-66
2023/02/28 04:34:40;;;;;;;;;12.75;12.00;;;;;4.68;46.57;102135.53;2079689;28;45971;-66
2023/02/28 04:35:41;;;;;;;;;16.25;15.00;;;;;4.67;46.14;102139.91;2082980;28;46384;-66
2023/02/28 04:36:41;;;;;;;;;18.25;15.75;;;;;4.66;46.33;102135.50;2080660;28;46204;-66
2023/02/28 04:37:41;;;;;;;;;12.25;12.25;;;;;4.66;46.05;102139.88;2087429;28;46447;-66
2023/02/28 04:38:42;;;;;;;;;13.50;13.50;;;;;4.66;46.53;102139.88;2087561;28;44965;-65
2023/02/28 04:39:43;;;;;;;;;15.50;13.00;;;;;4.66;46.44;102137.25;2078563;28;46257;-66
2023/02/28 04:40:43;;;;;;;;;14.40;14.40;;;;;4.65;46.38;102146.00;2079701;28;45780;-65
2023/02/28 04:41:44;;;;;;;;;21.25;17.50;;;;;4.63;46.49;102139.81;2079379;28;46571;-66
2023/02/28 04:42:44;;;;;;;;;16.00;14.40;;;;;4.63;46.50;102137.19;2085970;28;46271;-65
2023/02/28 04:43:45;;;;;;;;;14.25;13.75;;;;;4.63;46.46;102142.44;2085458;28;46254;-66
2023/02/28 04:44:45;;;;;;;;;17.25;17.00;;;;;4.62;46.38;102138.03;2079393;28;46870;-66
2023/02/28 04:45:45;;;;;;;;;18.50;17.25;;;;;4.62;46.33;102140.66;2080953;28;46541;-66
2023/02/28 04:46:48;;;;;;;;;16.75;13.75;;;;;4.61;46.57;102145.03;2079521;28;46904;-66
2023/02/28 04:47:48;;;;;;;;;17.80;15.20;;;;;4.62;46.44;102145.94;2080212;28;46693;-65
2023/02/28 04:48:49;;;;;;;;;15.75;15.75;;;;;4.61;46.29;102145.03;2079437;28;45996;-65
2023/02/28 04:49:49;;;;;;;;;20.75;19.00;;;;;4.61;46.75;102142.41;2077880;28;46615;-67
2023/02/28 04:50:50;;;;;;;;;18.25;15.50;;;;;4.60;46.45;102139.75;2080703;28;45499;-66
2023/02/28 04:51:50;;;;;;;;;18.50;17.25;;;;;4.59;46.81;102144.09;2080318;28;46235;-65
2023/02/28 04:52:50;;;;;;;;;17.00;17.00;;;;;4.61;46.74;102147.66;2080392;28;45904;-66
2023/02/28 04:53:51;;;;;;;;;19.25;19.25;;;;;4.60;46.68;102140.63;2080505;28;45438;-66
2023/02/28 04:54:52;;;;;;;;;23.60;20.20;;;;;4.60;46.42;102151.16;2078335;28;45947;-66
2023/02/28 04:55:52;;;;;;;;;16.50;16.50;;;;;4.59;46.52;102141.47;2078899;28;46430;-66
2023/02/28 04:56:52;;;;;;;;;20.25;17.00;;;;;4.58;46.42;102139.72;2091193;28;45844;-66
2023/02/28 04:57:53;;;;;;;;;16.00;16.00;;;;;4.57;46.77;102145.78;2073631;28;46087;-67
2023/02/28 04:58:54;;;;;;;;;18.00;18.00;;;;;4.57;46.47;102147.53;2082701;28;45538;-66